createdAt,value
2018-09-13T00:00:28.788Z,6.67
2018-09-13T00:02:56.404Z,5.50
2018-09-13T00:05:23.970Z,6.40
2018-09-13T00:07:51.537Z,5.40
2018-09-13T00:10:19.152Z,5.90
2018-09-13T00:12:46.766Z,5.43
2018-09-13T00:15:14.333Z,5.70
2018-09-13T00:17:43.039Z,5.40
2018-09-13T00:20:10.620Z,6.00
2018-09-13T00:22:38.230Z,5.90
2018-09-13T00:25:05.916Z,5.63
2018-09-13T00:27:33.505Z,6.00
2018-09-13T00:30:02.049Z,6.03
2018-09-13T00:32:30.069Z,5.53
2018-09-13T00:34:57.647Z,5.77
2018-09-13T00:37:25.912Z,6.00
2018-09-13T00:39:53.605Z,5.40
2018-09-13T00:42:21.191Z,5.77
2018-09-13T00:44:48.852Z,5.57
2018-09-13T00:47:16.646Z,5.80
2018-09-13T00:49:44.240Z,5.30
2018-09-13T00:52:11.907Z,5.63
2018-09-13T00:54:39.468Z,4.80
2018-09-13T00:57:07.425Z,5.07
2018-09-13T00:59:35.236Z,5.20
2018-09-13T01:02:02.856Z,5.37
2018-09-13T01:04:30.425Z,5.17
2018-09-13T01:06:58.036Z,5.80
2018-09-13T01:09:25.625Z,5.30
2018-09-13T01:11:53.216Z,5.13
2018-09-13T01:14:20.982Z,6.20
2018-09-13T01:16:48.621Z,6.13
2018-09-13T01:19:16.220Z,5.40
2018-09-13T01:21:44.525Z,5.10
2018-09-13T01:24:12.090Z,5.57
2018-09-13T01:26:39.809Z,4.90
2018-09-13T01:29:08.412Z,5.00
2018-09-13T01:31:39.370Z,5.20
2018-09-13T01:34:06.958Z,5.10
2018-09-13T01:36:34.553Z,5.77
2018-09-13T01:39:02.640Z,5.37
2018-09-13T01:41:30.249Z,6.03
2018-09-13T01:43:57.833Z,5.57
2018-09-13T01:46:25.428Z,6.23
2018-09-13T01:48:53.017Z,6.00
2018-09-13T01:51:20.617Z,5.20
2018-09-13T01:53:48.184Z,5.60
2018-09-13T01:56:15.785Z,5.70
2018-09-13T01:58:43.357Z,5.63
2018-09-13T02:01:11.550Z,5.60
2018-09-13T02:03:40.119Z,5.73
2018-09-13T02:06:07.683Z,5.83
2018-09-13T02:08:35.276Z,5.00
2018-09-13T02:11:02.873Z,6.00
2018-09-13T02:13:30.436Z,5.80
2018-09-13T02:15:58.052Z,5.30
2018-09-13T02:18:25.660Z,5.70
2018-09-13T02:20:53.264Z,6.00
2018-09-13T02:23:20.862Z,5.40
2018-09-13T02:25:48.475Z,5.57
2018-09-13T02:28:16.049Z,5.23
2018-09-13T02:30:43.616Z,6.40
2018-09-13T02:33:11.955Z,5.50
2018-09-13T02:35:39.527Z,5.97
2018-09-13T02:38:07.157Z,6.10
2018-09-13T02:40:34.795Z,6.20
2018-09-13T02:43:03.166Z,5.90
2018-09-13T02:45:30.745Z,5.63
2018-09-13T02:47:58.330Z,6.30
2018-09-13T02:50:25.890Z,7.30
2018-09-13T02:52:53.497Z,7.00
2018-09-13T02:55:21.121Z,5.93
2018-09-13T02:57:48.752Z,6.60
2018-09-13T03:00:17.353Z,7.20
2018-09-13T03:02:44.937Z,7.17
2018-09-13T03:05:12.516Z,5.73
2018-09-13T03:07:40.193Z,6.30
2018-09-13T03:10:07.793Z,6.17
2018-09-13T03:12:35.393Z,6.00
2018-09-13T03:15:08.945Z,5.90
2018-09-13T03:17:37.281Z,6.00
2018-09-13T03:20:04.908Z,6.83
2018-09-13T03:22:32.501Z,5.73
2018-09-13T03:25:00.060Z,5.20
2018-09-13T03:27:27.705Z,6.70
2018-09-13T03:29:56.345Z,6.10
2018-09-13T03:32:23.960Z,6.03
2018-09-13T03:34:51.621Z,6.10
2018-09-13T03:37:19.381Z,7.07
2018-09-13T03:39:47.056Z,5.70
2018-09-13T03:42:15.921Z,5.87
2018-09-13T03:44:43.525Z,6.67
2018-09-13T03:47:11.141Z,6.57
2018-09-13T03:49:38.732Z,6.90
2018-09-13T03:52:06.380Z,7.13
2018-09-13T03:54:34.001Z,7.67
2018-09-13T03:57:01.589Z,6.33
2018-09-13T03:59:29.225Z,6.10
2018-09-13T04:01:56.832Z,5.23
2018-09-13T04:04:25.077Z,6.27
2018-09-13T04:06:52.789Z,6.70
2018-09-13T04:09:20.425Z,7.13
2018-09-13T04:11:48.029Z,6.80
2018-09-13T04:14:15.621Z,6.73
2018-09-13T04:16:43.223Z,5.47
2018-09-13T04:19:10.801Z,7.00
2018-09-13T04:21:38.412Z,7.50
2018-09-13T04:24:06.329Z,7.00
2018-09-13T04:26:33.901Z,6.00
2018-09-13T04:29:01.486Z,7.07
2018-09-13T04:31:29.081Z,7.47
2018-09-13T04:33:56.657Z,6.93
2018-09-13T04:36:24.345Z,7.20
2018-09-13T04:38:52.052Z,8.90
2018-09-13T04:41:20.569Z,6.50
2018-09-13T04:43:49.248Z,6.53
2018-09-13T04:46:16.840Z,7.07
2018-09-13T04:48:45.457Z,7.30
2018-09-13T04:51:13.681Z,7.30
2018-09-13T04:53:41.269Z,8.00
2018-09-13T04:56:08.936Z,7.13
2018-09-13T04:58:36.577Z,7.83
2018-09-13T05:01:04.349Z,6.63
2018-09-13T05:03:31.988Z,6.83
2018-09-13T05:05:59.555Z,6.57
2018-09-13T05:08:27.155Z,6.20
2018-09-13T05:10:55.778Z,6.60
2018-09-13T05:13:23.368Z,7.27
2018-09-13T05:15:51.012Z,6.33
2018-09-13T05:18:18.601Z,7.17
2018-09-13T05:20:47.249Z,7.10
2018-09-13T05:23:15.353Z,6.50
2018-09-13T05:25:42.976Z,6.47
2018-09-13T05:28:10.656Z,6.30
2018-09-13T05:30:38.248Z,7.30
2018-09-13T05:33:06.141Z,7.63
2018-09-13T05:35:33.705Z,8.93
2018-09-13T05:38:01.576Z,8.77
2018-09-13T05:40:29.886Z,8.80
2018-09-13T05:42:58.529Z,7.47
2018-09-13T05:45:26.572Z,6.90
2018-09-13T05:47:54.211Z,7.90
2018-09-13T05:50:22.584Z,8.20
2018-09-13T05:52:50.175Z,7.60
2018-09-13T05:55:17.786Z,8.73
2018-09-13T05:57:45.389Z,8.37
2018-09-13T06:00:13.053Z,6.73
2018-09-13T06:02:41.241Z,6.37
2018-09-13T06:05:08.853Z,6.03
2018-09-13T06:07:36.497Z,8.50
2018-09-13T06:10:04.212Z,6.00
2018-09-13T06:12:31.796Z,6.40
2018-09-13T06:14:59.397Z,6.27
2018-09-13T06:17:27.024Z,6.77
2018-09-13T06:19:54.621Z,6.63
2018-09-13T06:22:22.205Z,6.20
2018-09-13T06:24:49.800Z,5.73
2018-09-13T06:27:17.402Z,6.20
2018-09-13T06:29:44.989Z,5.80
2018-09-13T06:32:12.624Z,6.50
2018-09-13T06:34:40.233Z,7.00
2018-09-13T06:37:07.845Z,7.03
2018-09-13T06:39:35.621Z,5.10
2018-09-13T06:42:03.267Z,5.93
2018-09-13T06:44:30.845Z,6.10
2018-09-13T06:46:58.485Z,6.30
2018-09-13T06:49:26.151Z,5.53
2018-09-13T06:51:53.757Z,5.27
2018-09-13T06:54:21.352Z,5.70
2018-09-13T06:56:48.955Z,6.97
2018-09-13T06:59:17.337Z,6.60
2018-09-13T07:01:44.944Z,6.60
2018-09-13T07:04:12.548Z,6.53
2018-09-13T07:06:40.177Z,6.17
2018-09-13T07:09:10.388Z,6.77
2018-09-13T07:11:38.013Z,6.50
2018-09-13T07:14:05.616Z,6.00
2018-09-13T07:16:33.208Z,5.80
2018-09-13T07:19:00.773Z,6.07
2018-09-13T07:21:28.393Z,5.47
2018-09-13T07:23:55.968Z,5.33
2018-09-13T07:26:23.629Z,5.47
2018-09-13T07:28:51.216Z,5.50
2018-09-13T07:31:18.801Z,5.10
2018-09-13T07:33:46.405Z,5.53
2018-09-13T07:36:13.960Z,5.93
2018-09-13T07:38:41.523Z,5.60
2018-09-13T07:41:10.036Z,5.10
2018-09-13T07:43:37.637Z,5.70
2018-09-13T07:46:05.337Z,5.53
2018-09-13T07:48:33.624Z,5.97
2018-09-13T07:51:01.273Z,5.10
2018-09-13T07:53:29.864Z,5.90
2018-09-13T07:55:58.461Z,4.90
2018-09-13T07:58:26.136Z,4.53
2018-09-13T08:00:53.743Z,5.00
2018-09-13T08:03:21.293Z,4.20
2018-09-13T08:05:49.580Z,4.80
2018-09-13T08:08:17.181Z,5.00
2018-09-13T08:10:44.772Z,6.03
2018-09-13T08:13:12.396Z,5.77
2018-09-13T08:15:39.991Z,5.20
2018-09-13T08:18:07.637Z,5.60
2018-09-13T08:20:35.249Z,5.50
2018-09-13T08:23:02.824Z,6.47
2018-09-13T08:25:30.432Z,5.37
2018-09-13T08:27:58.012Z,6.43
2018-09-13T08:30:25.648Z,5.07
2018-09-13T08:32:53.231Z,5.83
2018-09-13T08:35:20.842Z,5.50
2018-09-13T08:37:48.424Z,5.40
2018-09-13T08:40:16.155Z,4.60
2018-09-13T08:42:43.675Z,5.00
2018-09-13T08:45:12.230Z,4.57
2018-09-13T08:47:39.921Z,6.27
2018-09-13T08:50:07.445Z,4.13
2018-09-13T08:52:35.061Z,4.30
2018-09-13T08:55:02.767Z,3.93
2018-09-13T08:57:30.334Z,5.27
2018-09-13T08:59:57.904Z,4.33
2018-09-13T09:02:25.508Z,5.00
2018-09-13T09:04:53.101Z,3.73
2018-09-13T09:07:20.713Z,4.60
2018-09-13T09:09:48.260Z,4.20
2018-09-13T09:12:15.858Z,4.73
2018-09-13T09:14:45.764Z,4.13
2018-09-13T09:17:13.496Z,4.33
2018-09-13T09:19:41.173Z,5.50
2018-09-13T09:22:08.749Z,5.20
2018-09-13T09:24:37.341Z,4.20
2018-09-13T09:27:05.005Z,4.30
2018-09-13T09:29:32.607Z,3.77
2018-09-13T09:32:00.382Z,4.33
2018-09-13T09:34:27.949Z,4.80
2018-09-13T09:36:55.541Z,3.50
2018-09-13T09:39:23.117Z,4.00
2018-09-13T09:41:50.696Z,3.70
2018-09-13T09:44:18.346Z,3.80
2018-09-13T09:46:45.913Z,4.20
2018-09-13T09:49:13.469Z,4.50
2018-09-13T09:51:41.061Z,3.67
2018-09-13T09:54:08.652Z,3.20
2018-09-13T09:56:36.257Z,4.00
2018-09-13T09:59:03.880Z,4.03
2018-09-13T10:01:32.485Z,4.17
2018-09-13T10:04:00.353Z,4.10
2018-09-13T10:06:27.904Z,4.00
2018-09-13T10:08:55.983Z,3.57
2018-09-13T10:11:23.734Z,3.27
2018-09-13T10:13:51.516Z,3.37
2018-09-13T10:16:24.703Z,3.17
2018-09-13T10:18:58.025Z,3.60
2018-09-13T10:21:31.289Z,3.87
2018-09-13T10:25:04.309Z,3.77
2018-09-13T10:27:37.493Z,4.13
2018-09-13T10:30:11.464Z,3.80
2018-09-13T10:32:44.721Z,2.93
2018-09-13T10:35:18.040Z,3.83
2018-09-13T10:37:51.244Z,2.97
2018-09-13T10:40:24.579Z,3.20
2018-09-13T10:42:57.873Z,3.00
2018-09-13T10:45:31.191Z,3.27
2018-09-13T10:48:04.627Z,3.53
2018-09-13T10:50:38.360Z,3.37
2018-09-13T10:53:11.485Z,3.57
2018-09-13T10:55:39.095Z,3.50
2018-09-13T10:58:06.708Z,3.40
2018-09-13T11:00:34.410Z,3.37
2018-09-13T11:03:02.008Z,3.50
2018-09-13T11:05:29.797Z,3.57
2018-09-13T11:07:58.373Z,3.40
2018-09-13T11:10:26.055Z,3.27
2018-09-13T11:12:59.224Z,3.23
2018-09-13T11:15:31.558Z,3.40
2018-09-13T11:17:59.125Z,3.33
2018-09-13T11:20:26.840Z,3.10
2018-09-13T11:22:54.773Z,3.53
2018-09-13T11:25:23.328Z,3.77
2018-09-13T11:27:50.889Z,3.20
2018-09-13T11:30:18.989Z,3.90
2018-09-13T11:32:46.608Z,2.90
2018-09-13T11:35:14.228Z,2.80
2018-09-13T11:37:41.833Z,3.60
2018-09-13T11:40:10.041Z,3.33
2018-09-13T11:42:37.642Z,3.43
2018-09-13T11:47:36.997Z,3.07
2018-09-13T11:50:05.031Z,3.80
2018-09-13T11:52:32.601Z,3.03
2018-09-13T11:55:00.204Z,3.13
2018-09-13T11:57:27.874Z,3.40
2018-09-13T11:59:55.469Z,3.40
2018-09-13T12:02:23.100Z,3.10
2018-09-13T12:04:50.664Z,3.00
2018-09-13T12:07:18.290Z,3.67
2018-09-13T12:09:45.880Z,3.10
2018-09-13T12:12:13.686Z,3.53
2018-09-13T12:14:41.237Z,3.53
2018-09-13T12:17:08.913Z,3.30
2018-09-13T12:19:37.333Z,2.90
2018-09-13T12:22:05.723Z,3.03
2018-09-13T12:24:33.356Z,3.40
2018-09-13T12:27:00.952Z,3.17
2018-09-13T12:29:28.552Z,3.07
2018-09-13T12:31:56.136Z,3.10
2018-09-13T12:34:23.799Z,3.10
2018-09-13T12:36:51.693Z,3.30
2018-09-13T12:39:19.844Z,3.33
2018-09-13T12:41:47.421Z,2.90
2018-09-13T12:44:17.139Z,2.70
2018-09-13T12:46:44.805Z,2.83
2018-09-13T12:49:12.428Z,2.47
2018-09-13T12:51:40.056Z,2.73
2018-09-13T12:54:07.633Z,2.60
2018-09-13T12:56:35.226Z,2.53
2018-09-13T12:59:02.841Z,2.87
2018-09-13T13:01:30.449Z,2.57
2018-09-13T13:03:58.036Z,2.90
2018-09-13T13:06:27.624Z,2.37
2018-09-13T13:08:55.251Z,2.47
2018-09-13T13:11:22.812Z,2.87
2018-09-13T13:13:50.414Z,2.90
2018-09-13T13:16:18.021Z,2.73
2018-09-13T13:18:45.644Z,2.70
2018-09-13T13:21:13.968Z,2.30
2018-09-13T13:23:41.728Z,3.20
2018-09-13T13:26:12.072Z,2.73
2018-09-13T13:28:39.673Z,2.57
2018-09-13T13:31:07.276Z,3.10
2018-09-13T13:33:34.917Z,3.13
2018-09-13T13:36:02.605Z,3.00
2018-09-13T13:38:30.218Z,2.73
2018-09-13T13:40:58.820Z,2.93
2018-09-13T13:43:26.385Z,2.67
2018-09-13T13:45:54.021Z,2.40
2018-09-13T13:48:45.197Z,2.90
2018-09-13T13:51:12.812Z,2.90
2018-09-13T13:53:40.414Z,2.63
2018-09-13T13:56:08.060Z,2.67
2018-09-13T13:58:36.705Z,3.33
2018-09-13T14:01:04.374Z,2.60
2018-09-13T14:03:31.944Z,2.70
2018-09-13T14:05:59.532Z,2.70
2018-09-13T14:08:28.192Z,2.73
2018-09-13T14:10:55.821Z,2.80
2018-09-13T14:13:23.451Z,3.00
2018-09-13T14:15:51.033Z,2.93
2018-09-13T14:18:18.676Z,2.70
2018-09-13T14:20:49.333Z,2.97
2018-09-13T14:23:17.492Z,3.00
2018-09-13T14:25:45.109Z,2.60
2018-09-13T14:28:12.942Z,2.70
2018-09-13T14:30:40.557Z,2.33
2018-09-13T14:33:08.129Z,2.43
2018-09-13T14:35:37.580Z,2.33
2018-09-13T14:38:05.236Z,3.50
2018-09-13T14:40:32.868Z,2.80
2018-09-13T14:43:00.450Z,3.77
2018-09-13T14:45:28.050Z,2.83
2018-09-13T14:47:55.829Z,2.80
2018-09-13T14:50:23.425Z,2.87
2018-09-13T14:52:50.985Z,3.57
2018-09-13T14:55:18.582Z,3.30
2018-09-13T14:57:46.809Z,3.83
2018-09-13T15:00:15.429Z,3.50
2018-09-13T15:02:43.777Z,3.97
2018-09-13T15:05:11.448Z,4.80
2018-09-13T15:07:39.014Z,5.10
2018-09-13T15:10:06.952Z,5.13
2018-09-13T15:12:35.083Z,4.60
2018-09-13T15:15:02.707Z,4.70
2018-09-13T15:17:30.292Z,6.63
2018-09-13T15:19:58.501Z,4.53
2018-09-13T15:22:26.053Z,5.27
2018-09-13T15:24:54.512Z,5.40
2018-09-13T15:27:22.121Z,4.60
2018-09-13T15:29:49.874Z,5.47
2018-09-13T15:32:19.038Z,5.87
2018-09-13T15:34:46.662Z,4.97
2018-09-13T15:37:14.233Z,6.37
2018-09-13T15:39:41.832Z,4.73
2018-09-13T15:42:09.449Z,4.93
2018-09-13T15:44:37.124Z,5.83
2018-09-13T15:47:04.764Z,5.47
2018-09-13T15:49:32.372Z,4.60
2018-09-13T15:51:59.940Z,4.70
2018-09-13T15:54:27.522Z,5.10
2018-09-13T15:56:55.126Z,4.47
2018-09-13T15:59:22.805Z,4.60
2018-09-13T16:01:50.446Z,4.33
2018-09-13T16:04:18.309Z,4.80
2018-09-13T16:06:45.880Z,5.00
2018-09-13T16:09:14.521Z,5.30
2018-09-13T16:11:42.133Z,4.90
2018-09-13T16:14:09.737Z,5.37
2018-09-13T16:16:38.165Z,5.03
2018-09-13T16:19:06.769Z,4.93
2018-09-13T16:21:34.392Z,4.10
2018-09-13T16:24:02.069Z,4.53
2018-09-13T16:26:29.714Z,5.10
2018-09-13T16:28:57.425Z,4.70
2018-09-13T16:31:25.773Z,4.80
2018-09-13T16:33:53.468Z,5.03
2018-09-13T16:36:29.966Z,5.00
2018-09-13T16:40:06.372Z,4.23
2018-09-13T16:42:48.360Z,5.30
2018-09-13T16:45:16.028Z,4.93
2018-09-13T16:47:49.357Z,5.20
2018-09-13T16:50:16.908Z,5.07
2018-09-13T16:52:44.485Z,4.60
2018-09-13T16:55:12.107Z,4.80
2018-09-13T16:57:40.725Z,4.70
2018-09-13T17:00:08.381Z,4.43
2018-09-13T17:02:36.001Z,4.27
2018-09-13T17:05:03.709Z,3.97
2018-09-13T17:07:32.149Z,4.60
2018-09-13T17:10:00.301Z,5.10
2018-09-13T17:12:27.869Z,4.50
2018-09-13T17:14:55.765Z,5.10
2018-09-13T17:17:24.141Z,4.80
2018-09-13T17:19:51.714Z,5.00
2018-09-13T17:22:19.324Z,5.20
2018-09-13T17:24:46.931Z,5.10
2018-09-13T17:27:14.534Z,4.70
2018-09-13T17:29:42.122Z,4.57
2018-09-13T17:32:09.714Z,5.87
2018-09-13T17:34:37.321Z,5.23
2018-09-13T17:37:05.475Z,4.37
2018-09-13T17:39:33.085Z,4.90
2018-09-13T17:42:00.745Z,5.00
2018-09-13T17:44:28.393Z,5.60
2018-09-13T17:46:56.004Z,5.53
2018-09-13T17:49:25.185Z,5.30
2018-09-13T17:51:53.829Z,5.13
2018-09-13T17:54:21.449Z,6.07
2018-09-13T17:56:49.022Z,5.97
2018-09-13T17:59:17.541Z,6.77
2018-09-13T18:01:49.091Z,6.60
2018-09-13T18:04:19.727Z,7.00
2018-09-13T18:06:47.307Z,6.50
2018-09-13T18:09:14.905Z,7.40
2018-09-13T18:11:42.508Z,7.03
2018-09-13T18:14:10.145Z,7.00
2018-09-13T18:16:37.729Z,6.57
2018-09-13T18:19:05.362Z,7.53
2018-09-13T18:21:32.970Z,7.97
2018-09-13T18:24:00.582Z,6.53
2018-09-13T18:26:28.201Z,6.60
2018-09-13T18:28:56.844Z,7.50
2018-09-13T18:31:24.517Z,7.60
2018-09-13T18:33:52.119Z,6.73
2018-09-13T18:36:20.810Z,6.67
2018-09-13T18:38:48.483Z,7.90
2018-09-13T18:41:16.124Z,6.47
2018-09-13T18:43:43.777Z,7.67
2018-09-13T18:46:26.980Z,6.73
2018-09-13T18:48:54.841Z,7.13
2018-09-13T18:51:22.580Z,6.93
2018-09-13T18:53:50.402Z,6.80
2018-09-13T18:56:17.968Z,6.93
2018-09-13T18:58:45.633Z,7.40
2018-09-13T19:01:13.719Z,5.57
2018-09-13T19:03:41.296Z,5.43
2018-09-13T19:06:09.000Z,6.40
2018-09-13T19:08:36.600Z,5.40
2018-09-13T19:11:04.342Z,6.60
2018-09-13T19:13:31.973Z,6.20
2018-09-13T19:16:01.257Z,5.50
2018-09-13T19:18:29.000Z,6.47
2018-09-13T19:20:56.581Z,5.40
2018-09-13T19:23:24.212Z,6.23
2018-09-13T19:25:51.800Z,6.40
2018-09-13T19:28:19.430Z,6.50
2018-09-13T19:30:47.006Z,7.17
2018-09-13T19:33:14.674Z,6.50
2018-09-13T19:35:42.284Z,5.77
2018-09-13T19:38:09.907Z,5.70
2018-09-13T19:40:38.277Z,5.83
2018-09-13T19:43:06.015Z,6.23
2018-09-13T19:45:33.588Z,5.47
2018-09-13T19:48:01.800Z,6.27
2018-09-13T19:50:29.457Z,5.93
2018-09-13T19:52:57.024Z,6.17
2018-09-13T19:55:27.127Z,5.90
2018-09-13T19:57:54.955Z,5.63
2018-09-13T20:00:22.605Z,5.77
2018-09-13T20:02:50.215Z,5.57
2018-09-13T20:05:17.805Z,4.80
2018-09-13T20:07:48.036Z,5.43
2018-09-13T20:10:15.880Z,5.40
2018-09-13T20:12:44.416Z,5.27
2018-09-13T20:15:12.049Z,5.90
2018-09-13T20:17:39.663Z,4.93
2018-09-13T20:20:07.268Z,5.53
2018-09-13T20:22:34.897Z,5.57
2018-09-13T20:25:02.553Z,6.00
2018-09-13T20:27:30.198Z,5.43
2018-09-13T20:29:57.929Z,5.50
2018-09-13T20:32:25.508Z,5.60
2018-09-13T20:34:53.188Z,5.07
2018-09-13T20:37:20.789Z,5.40
2018-09-13T20:39:48.524Z,5.37
2018-09-13T20:42:16.214Z,4.83
2018-09-13T20:44:43.867Z,5.53
2018-09-13T20:47:11.598Z,5.90
2018-09-13T20:49:39.179Z,5.80
2018-09-13T20:52:06.868Z,4.97
2018-09-13T20:54:34.446Z,5.20
2018-09-13T20:57:02.025Z,5.37
2018-09-13T20:59:29.813Z,5.50
2018-09-13T21:01:57.425Z,5.63
2018-09-13T21:04:25.067Z,6.57
2018-09-13T21:06:52.854Z,6.97
2018-09-13T21:09:20.453Z,6.23
2018-09-13T21:11:48.125Z,6.27
2018-09-13T21:14:15.721Z,7.07
2018-09-13T21:16:43.315Z,5.40
2018-09-13T21:19:11.584Z,6.40
2018-09-13T21:21:39.216Z,5.83
2018-09-13T21:24:07.388Z,5.27
2018-09-13T21:26:34.861Z,4.83
2018-09-13T21:29:02.466Z,4.80
2018-09-13T21:31:30.105Z,5.10
2018-09-13T21:33:57.694Z,5.07
2018-09-13T21:36:25.348Z,4.70
2018-09-13T21:38:52.982Z,4.30
2018-09-13T21:41:20.681Z,4.30
2018-09-13T21:43:48.290Z,4.30
2018-09-13T21:46:15.901Z,4.70
2018-09-13T21:48:43.493Z,3.67
2018-09-13T21:51:11.092Z,5.67
2018-09-13T21:53:38.761Z,4.03
2018-09-13T21:56:06.376Z,4.30
2018-09-13T21:58:33.983Z,4.10
2018-09-13T22:01:01.568Z,3.80
2018-09-13T22:03:29.528Z,3.70
2018-09-13T22:05:57.133Z,3.77
2018-09-13T22:08:24.737Z,3.80
2018-09-13T22:10:52.336Z,3.50
2018-09-13T22:13:19.950Z,4.30
2018-09-13T22:15:47.577Z,3.60
2018-09-13T22:18:15.293Z,4.40
2018-09-13T22:20:42.912Z,5.83
2018-09-13T22:23:11.156Z,4.63
2018-09-13T22:25:38.812Z,4.23
2018-09-13T22:28:06.424Z,4.23
2018-09-13T22:30:34.057Z,4.70
2018-09-13T22:33:01.659Z,4.93
2018-09-13T22:35:29.253Z,5.00
2018-09-13T22:37:57.428Z,4.27
2018-09-13T22:40:25.052Z,4.67
2018-09-13T22:42:52.626Z,4.20
2018-09-13T22:45:20.217Z,5.30
2018-09-13T22:47:47.801Z,4.40
2018-09-13T22:50:15.406Z,3.93
2018-09-13T22:52:44.049Z,4.53
2018-09-13T22:55:11.629Z,4.70
2018-09-13T22:57:39.287Z,4.10
2018-09-13T23:00:07.149Z,5.53
2018-09-13T23:02:40.272Z,5.43
2018-09-13T23:05:07.897Z,4.90
2018-09-13T23:07:35.490Z,4.80
2018-09-13T23:10:03.165Z,5.33
2018-09-13T23:12:30.733Z,4.77
2018-09-13T23:14:58.337Z,4.70
2018-09-13T23:17:26.076Z,4.77
2018-09-13T23:19:53.684Z,4.50
2018-09-13T23:22:21.289Z,4.00
2018-09-13T23:24:48.885Z,3.77
2018-09-13T23:27:16.497Z,3.37
2018-09-13T23:29:44.119Z,3.60
2018-09-13T23:32:11.713Z,3.20
2018-09-13T23:34:39.312Z,3.33
2018-09-13T23:37:06.920Z,3.00
2018-09-13T23:39:34.751Z,2.90
2018-09-13T23:42:02.178Z,3.03
2018-09-13T23:44:29.869Z,3.20
2018-09-13T23:46:57.472Z,3.13
2018-09-13T23:49:25.168Z,2.93
2018-09-13T23:51:52.771Z,3.50
2018-09-13T23:54:20.368Z,2.33
2018-09-13T23:56:49.354Z,3.07
2018-09-13T23:59:17.037Z,2.60
